Duffield, Virginia
Current Conditions -  °F | °C
As of 10:35 PM on Saturday 22 Nov 2014 (Local Time) from KLNP Reporting Station
Clear Clear  
Wind Chill: 43°   Ceiling: Unl
Heat Index: 48°   Visibility: 10mi
Dew Point: 19°   Wind: 13mph
Humidity: 32%   Direction: 170°S
Pressure: 30.2"   Gusts: NA
Location:  36.72°N, 82.8°W
Report Text: KLNP 230335Z AUTO 17011KT 10SM CLR 09/M07 A3020 RMK AO2
Loading
Personal Weather Stations






























Interactive Weather Map New forecast layout! Learn more

10-Day Weather Forecast

Advertisements
Track Severe Weather on mobile